createdAt,value
2022-11-17T00:00:30.189Z,16.12
2022-11-17T00:02:57.079Z,17.87
2022-11-17T00:05:24.182Z,16.85
2022-11-17T00:07:51.194Z,17.67
2022-11-17T00:10:18.402Z,17.62
2022-11-17T00:13:14.268Z,16.67
2022-11-17T00:15:43.735Z,18.40
2022-11-17T00:18:29.102Z,16.40
2022-11-17T00:21:14.723Z,16.60
2022-11-17T00:23:47.926Z,16.50
2022-11-17T00:26:16.639Z,14.93
2022-11-17T00:28:44.030Z,15.43
2022-11-17T00:31:33.241Z,16.27
2022-11-17T00:34:06.912Z,13.80
2022-11-17T00:36:34.932Z,15.02
2022-11-17T00:39:02.187Z,16.75
2022-11-17T00:41:29.038Z,15.82
2022-11-17T00:43:55.881Z,14.57
2022-11-17T00:46:23.141Z,15.20
2022-11-17T00:48:50.219Z,14.05
2022-11-17T00:51:17.129Z,15.55
2022-11-17T00:53:44.026Z,16.45
2022-11-17T00:56:11.094Z,15.30
2022-11-17T00:58:38.168Z,17.02
2022-11-17T01:01:05.341Z,16.30
2022-11-17T01:03:32.410Z,17.27
2022-11-17T01:06:08.385Z,19.67
2022-11-17T01:08:35.635Z,19.70
2022-11-17T01:11:14.638Z,18.45
2022-11-17T01:13:42.593Z,22.62
2022-11-17T01:16:15.761Z,17.75
2022-11-17T01:18:43.834Z,21.42
2022-11-17T01:21:19.299Z,20.75
2022-11-17T01:23:47.458Z,22.27
2022-11-17T01:26:16.652Z,20.15
2022-11-17T01:28:43.861Z,17.77
2022-11-17T01:31:15.797Z,22.27
2022-11-17T01:33:42.842Z,21.12
2022-11-17T01:36:23.210Z,21.23
2022-11-17T01:38:50.284Z,20.60
2022-11-17T01:41:27.401Z,21.90
2022-11-17T01:43:59.632Z,19.45
2022-11-17T01:46:39.016Z,22.60
2022-11-17T01:49:10.344Z,18.15
2022-11-17T01:51:40.985Z,22.20
2022-11-17T01:54:09.400Z,23.10
2022-11-17T01:56:40.303Z,22.58
2022-11-17T01:59:10.624Z,21.60
2022-11-17T02:01:55.852Z,20.15
2022-11-17T02:04:28.445Z,19.48
2022-11-17T02:07:16.130Z,19.52
2022-11-17T02:09:44.168Z,17.55
2022-11-17T02:12:13.232Z,18.27
2022-11-17T02:14:40.533Z,19.52
2022-11-17T02:17:13.783Z,18.75
2022-11-17T02:19:42.697Z,15.85
2022-11-17T02:22:28.197Z,18.42
2022-11-17T02:25:25.722Z,18.90
2022-11-17T02:28:17.585Z,19.25
2022-11-17T02:31:04.110Z,16.83
2022-11-17T02:33:37.994Z,18.02
2022-11-17T02:36:31.542Z,16.37
2022-11-17T02:39:12.221Z,19.05
2022-11-17T02:41:50.859Z,17.55
2022-11-17T02:44:37.920Z,17.95
2022-11-17T02:47:05.419Z,18.77
2022-11-17T02:49:43.333Z,18.55
2022-11-17T02:52:10.227Z,19.23
2022-11-17T02:54:37.122Z,19.15
2022-11-17T02:57:04.052Z,20.62
2022-11-17T02:59:47.102Z,19.75
2022-11-17T03:02:25.947Z,19.70
2022-11-17T03:05:34.713Z,19.92
2022-11-17T03:08:33.355Z,16.87
2022-11-17T03:11:04.945Z,18.70
2022-11-17T03:13:51.961Z,21.60
2022-11-17T03:16:24.807Z,20.80
2022-11-17T03:19:14.111Z,20.40
2022-11-17T03:21:40.940Z,20.45
2022-11-17T03:26:53.458Z,19.63
2022-11-17T03:29:22.019Z,22.05
2022-11-17T03:31:51.376Z,22.33
2022-11-17T03:34:21.357Z,20.12
2022-11-17T03:36:52.955Z,20.90
2022-11-17T03:39:26.459Z,21.17
2022-11-17T03:41:59.096Z,22.35
2022-11-17T03:44:27.624Z,19.02
2022-11-17T03:46:56.028Z,20.60
2022-11-17T03:49:35.538Z,21.58
2022-11-17T03:52:02.498Z,19.50
2022-11-17T03:54:29.396Z,19.98
2022-11-17T03:57:07.389Z,20.37
2022-11-17T03:59:54.307Z,16.62
2022-11-17T04:02:22.548Z,17.55
2022-11-17T04:05:07.464Z,18.77
2022-11-17T04:07:44.780Z,18.85
2022-11-17T04:13:01.371Z,19.85
2022-11-17T04:15:47.224Z,18.98
2022-11-17T04:18:14.549Z,19.00
2022-11-17T04:20:42.000Z,18.75
2022-11-17T04:23:12.283Z,20.52
2022-11-17T04:26:02.633Z,20.10
2022-11-17T04:28:37.066Z,22.92
2022-11-17T04:31:09.055Z,19.25
2022-11-17T04:33:36.922Z,19.35
2022-11-17T04:36:04.843Z,20.58
2022-11-17T04:38:31.741Z,20.92
2022-11-17T04:41:22.611Z,22.40
2022-11-17T04:43:49.494Z,19.67
2022-11-17T04:46:17.363Z,19.58
2022-11-17T04:48:44.453Z,21.67
2022-11-17T04:51:12.004Z,19.30
2022-11-17T04:53:39.102Z,18.83
2022-11-17T04:56:06.828Z,22.02
2022-11-17T04:58:33.758Z,21.37
2022-11-17T05:01:12.631Z,20.73
2022-11-17T05:03:40.372Z,17.80
2022-11-17T05:06:07.802Z,18.35
2022-11-17T05:08:37.100Z,23.10
2022-11-17T05:11:23.309Z,21.20
2022-11-17T05:13:51.349Z,20.88
2022-11-17T05:16:37.874Z,20.15
2022-11-17T05:19:05.902Z,19.75
2022-11-17T05:21:33.196Z,19.12
2022-11-17T05:24:00.115Z,19.30
2022-11-17T05:26:29.136Z,22.62
2022-11-17T05:28:57.648Z,20.62
2022-11-17T05:31:25.700Z,20.27
2022-11-17T05:33:53.415Z,20.85
2022-11-17T05:36:20.837Z,20.73
2022-11-17T05:38:48.542Z,20.65
2022-11-17T05:41:16.372Z,24.83
2022-11-17T05:43:43.990Z,22.85
2022-11-17T05:46:11.181Z,19.70
2022-11-17T05:48:38.185Z,20.40
2022-11-17T05:51:05.394Z,20.05
2022-11-17T05:53:32.678Z,20.00
2022-11-17T05:56:41.221Z,19.48
2022-11-17T05:59:22.057Z,21.12
2022-11-17T06:02:03.575Z,19.52
2022-11-17T06:04:31.003Z,20.42
2022-11-17T06:06:59.484Z,20.35
2022-11-17T06:09:33.492Z,18.45
2022-11-17T06:12:05.607Z,18.20
2022-11-17T06:14:34.372Z,19.50
2022-11-17T06:17:06.535Z,22.70
2022-11-17T06:19:42.168Z,18.85
2022-11-17T06:22:13.547Z,18.00
2022-11-17T06:24:42.321Z,19.87
2022-11-17T06:27:11.019Z,19.75
2022-11-17T06:29:43.688Z,20.60
2022-11-17T06:32:12.410Z,18.87
2022-11-17T06:34:39.316Z,20.62
2022-11-17T06:37:06.156Z,19.33
2022-11-17T06:39:33.118Z,19.05
2022-11-17T06:41:59.967Z,21.75
2022-11-17T06:44:26.815Z,21.50
2022-11-17T06:46:53.666Z,20.25
2022-11-17T06:49:20.551Z,21.02
2022-11-17T06:51:47.400Z,21.15
2022-11-17T06:54:15.055Z,23.48
2022-11-17T06:56:42.582Z,23.62
2022-11-17T06:59:09.581Z,23.25
2022-11-17T07:01:37.876Z,21.73
2022-11-17T07:04:05.163Z,22.10
2022-11-17T07:06:32.414Z,23.90
2022-11-17T07:08:59.413Z,27.40
2022-11-17T07:11:26.399Z,26.05
2022-11-17T07:13:53.354Z,25.67
2022-11-17T07:16:23.877Z,26.08
2022-11-17T07:18:52.559Z,26.50
2022-11-17T07:21:19.501Z,27.13
2022-11-17T07:23:46.896Z,24.60
2022-11-17T07:26:14.524Z,24.65
2022-11-17T07:28:41.587Z,24.92
2022-11-17T07:31:09.476Z,27.33
2022-11-17T07:33:37.100Z,27.98
2022-11-17T07:36:09.897Z,28.55
2022-11-17T07:38:38.748Z,26.45
2022-11-17T07:41:07.276Z,26.77
2022-11-17T07:43:35.271Z,23.35
2022-11-17T07:46:07.243Z,26.75
2022-11-17T07:48:34.678Z,27.10
2022-11-17T07:51:03.493Z,22.05
2022-11-17T07:53:31.852Z,23.25
2022-11-17T07:56:03.826Z,28.52
2022-11-17T07:58:31.074Z,24.00
2022-11-17T08:00:58.079Z,21.90
2022-11-17T08:03:25.077Z,25.20
2022-11-17T08:05:53.585Z,22.95
2022-11-17T08:08:20.494Z,25.10
2022-11-17T08:10:47.446Z,22.15
2022-11-17T08:13:15.691Z,26.30
2022-11-17T08:15:42.593Z,24.05
2022-11-17T08:18:09.499Z,22.70
2022-11-17T08:20:37.463Z,22.35
2022-11-17T08:23:04.409Z,23.85
2022-11-17T08:25:31.342Z,24.17
2022-11-17T08:27:58.634Z,21.52
2022-11-17T08:30:44.582Z,22.80
2022-11-17T08:33:11.521Z,20.45
2022-11-17T08:35:38.460Z,23.02
2022-11-17T08:38:05.513Z,19.75
2022-11-17T08:40:43.730Z,19.80
2022-11-17T08:43:11.118Z,18.70
2022-11-17T08:45:38.263Z,21.58
2022-11-17T08:48:07.626Z,18.23
2022-11-17T08:57:17.577Z,20.98
2022-11-17T08:59:47.677Z,20.15
2022-11-17T09:02:14.851Z,19.80
2022-11-17T09:04:41.873Z,18.90
2022-11-17T09:07:08.991Z,18.75
2022-11-17T09:09:37.026Z,18.45
2022-11-17T09:12:04.115Z,19.70
2022-11-17T09:14:31.775Z,18.87
2022-11-17T09:16:58.717Z,17.90
2022-11-17T09:19:44.256Z,20.48
2022-11-17T09:22:11.227Z,17.48
2022-11-17T09:24:38.473Z,22.77
2022-11-17T09:27:05.481Z,19.50
2022-11-17T09:29:32.424Z,19.67
2022-11-17T09:31:59.278Z,19.62
2022-11-17T09:34:26.284Z,27.40
2022-11-17T09:36:53.285Z,21.25
2022-11-17T09:39:22.432Z,20.50
2022-11-17T09:41:51.487Z,19.27
2022-11-17T09:44:42.234Z,18.73
2022-11-17T09:47:33.019Z,19.62
2022-11-17T09:50:13.912Z,17.98
2022-11-17T09:53:09.833Z,16.90
2022-11-17T10:01:04.406Z,19.05
2022-11-17T10:03:33.122Z,17.48
2022-11-17T10:06:02.075Z,19.12
2022-11-17T10:08:35.090Z,20.52
2022-11-17T10:11:21.907Z,16.35
2022-11-17T10:13:49.884Z,19.80
2022-11-17T10:16:16.783Z,18.27
2022-11-17T10:18:43.727Z,20.33
2022-11-17T10:21:10.735Z,19.67
2022-11-17T10:23:46.192Z,18.83
2022-11-17T10:26:15.219Z,16.80
2022-11-17T10:28:42.251Z,15.77
2022-11-17T10:31:15.342Z,18.70
2022-11-17T10:33:44.543Z,15.18
2022-11-17T10:36:21.801Z,15.32
2022-11-17T10:38:54.349Z,13.98
2022-11-17T10:41:25.557Z,16.40
2022-11-17T10:44:06.856Z,15.90
2022-11-17T10:46:45.033Z,19.62
2022-11-17T10:49:34.468Z,13.70
2022-11-17T10:52:11.968Z,15.07
2022-11-17T10:54:38.967Z,15.95
2022-11-17T10:57:25.681Z,15.85
2022-11-17T10:59:56.912Z,15.02
2022-11-17T11:02:37.897Z,15.07
2022-11-17T11:05:08.265Z,15.43
2022-11-17T11:07:35.613Z,16.33
2022-11-17T11:10:08.685Z,16.00
2022-11-17T11:12:54.232Z,14.50
2022-11-17T11:15:25.674Z,16.60
2022-11-17T11:17:52.559Z,15.88
2022-11-17T11:20:22.800Z,11.35
2022-11-17T11:22:52.956Z,13.10
2022-11-17T11:25:37.013Z,11.80
2022-11-17T11:28:12.054Z,13.45
2022-11-17T11:30:47.729Z,10.60
2022-11-17T11:33:17.497Z,11.12
2022-11-17T11:36:15.277Z,13.15
2022-11-17T11:38:53.014Z,11.80
2022-11-17T11:41:42.872Z,12.00
2022-11-17T11:44:33.847Z,12.55
2022-11-17T11:47:36.199Z,11.63
2022-11-17T11:50:13.163Z,11.27
2022-11-17T11:52:44.984Z,14.10
2022-11-17T11:55:31.279Z,11.40
2022-11-17T11:58:01.074Z,14.35
2022-11-17T12:00:27.980Z,13.55
2022-11-17T12:03:20.816Z,12.55
2022-11-17T12:05:59.952Z,13.80
2022-11-17T12:08:36.519Z,13.02
2022-11-17T12:11:27.510Z,13.93
2022-11-17T12:13:54.793Z,13.07
2022-11-17T12:16:47.984Z,13.18
2022-11-17T12:19:57.289Z,13.77
2022-11-17T12:22:30.092Z,15.57
2022-11-17T12:25:17.241Z,13.62
2022-11-17T12:27:49.942Z,13.75
2022-11-17T12:30:57.390Z,13.45
2022-11-17T12:33:24.777Z,14.10
2022-11-17T12:36:37.532Z,13.00
2022-11-17T12:39:08.803Z,14.02
2022-11-17T12:42:00.153Z,14.07
2022-11-17T12:44:39.553Z,13.50
2022-11-17T12:47:22.345Z,12.75
2022-11-17T12:50:07.506Z,11.98
2022-11-17T12:52:43.779Z,13.95
2022-11-17T12:55:22.827Z,14.20
2022-11-17T12:57:58.521Z,14.52
2022-11-17T13:00:28.139Z,15.00
2022-11-17T13:03:05.355Z,11.65
2022-11-17T13:08:25.454Z,12.30
2022-11-17T13:11:03.914Z,14.15
2022-11-17T13:13:30.837Z,12.65
2022-11-17T13:16:00.177Z,11.43
2022-11-17T13:18:33.111Z,13.57
2022-11-17T13:21:01.208Z,13.68
2022-11-17T13:23:30.403Z,11.88
2022-11-17T13:26:10.596Z,11.43
2022-11-17T13:28:37.975Z,10.63
2022-11-17T13:31:04.933Z,10.93
2022-11-17T13:33:38.432Z,11.52
2022-11-17T13:36:15.267Z,11.80
2022-11-17T13:38:54.885Z,11.60
2022-11-17T13:41:22.781Z,10.32
2022-11-17T13:43:50.690Z,10.65
2022-11-17T13:46:18.353Z,11.35
2022-11-17T13:48:49.718Z,11.12
2022-11-17T13:51:22.954Z,14.80
2022-11-17T13:53:59.698Z,11.52
2022-11-17T13:56:31.341Z,13.32
2022-11-17T13:59:01.231Z,12.82
2022-11-17T14:01:29.670Z,12.00
2022-11-17T14:04:20.208Z,11.98
2022-11-17T14:07:01.885Z,11.88
2022-11-17T14:09:31.121Z,11.93
2022-11-17T14:11:58.727Z,13.55
2022-11-17T14:14:33.503Z,11.32
2022-11-17T14:17:18.278Z,11.40
2022-11-17T14:23:13.838Z,12.43
2022-11-17T14:25:43.269Z,10.52
2022-11-17T14:28:21.595Z,12.10
2022-11-17T14:30:55.973Z,13.43
2022-11-17T14:33:23.712Z,13.27
2022-11-17T14:35:53.881Z,12.35
2022-11-17T14:38:21.245Z,14.07
2022-11-17T14:40:52.659Z,12.55
2022-11-17T14:43:21.081Z,12.63
2022-11-17T14:45:48.936Z,12.52
2022-11-17T14:48:19.432Z,14.45
2022-11-17T14:50:47.214Z,13.18
2022-11-17T14:53:14.215Z,13.77
2022-11-17T14:55:41.124Z,13.20
2022-11-17T14:58:10.034Z,14.65
2022-11-17T15:00:37.157Z,14.10
2022-11-17T15:03:04.170Z,15.30
2022-11-17T15:05:31.168Z,12.57
2022-11-17T15:07:58.089Z,15.38
2022-11-17T15:10:25.026Z,13.73
2022-11-17T15:12:51.975Z,14.18
2022-11-17T15:15:19.000Z,13.75
2022-11-17T15:17:45.921Z,12.88
2022-11-17T15:20:12.886Z,14.30
2022-11-17T15:22:39.794Z,14.35
2022-11-17T15:25:08.135Z,14.13
2022-11-17T15:27:35.009Z,13.15
2022-11-17T15:30:02.241Z,14.25
2022-11-17T15:32:29.185Z,13.98
2022-11-17T15:34:56.103Z,14.02
2022-11-17T15:37:23.018Z,13.62
2022-11-17T15:39:49.929Z,14.57
2022-11-17T15:42:16.856Z,13.75
2022-11-17T15:44:43.820Z,14.60
2022-11-17T15:47:10.771Z,16.52
2022-11-17T15:49:37.643Z,17.00
2022-11-17T15:52:04.672Z,16.27
2022-11-17T15:54:31.572Z,15.07
2022-11-17T15:57:00.715Z,16.58
2022-11-17T15:59:27.588Z,17.75
2022-11-17T16:01:54.508Z,19.23
2022-11-17T16:04:21.813Z,15.98
2022-11-17T16:06:49.011Z,16.12
2022-11-17T16:09:16.704Z,19.85
2022-11-17T16:11:43.984Z,19.02
2022-11-17T16:14:11.883Z,19.75
2022-11-17T16:16:39.352Z,17.50
2022-11-17T16:19:06.693Z,16.08
2022-11-17T16:21:33.959Z,16.98
2022-11-17T16:24:02.441Z,16.85
2022-11-17T16:26:30.188Z,17.90
2022-11-17T16:28:58.776Z,17.08
2022-11-17T16:31:30.878Z,16.80
2022-11-17T16:34:00.108Z,17.10
2022-11-17T16:36:36.316Z,15.68
2022-11-17T16:39:05.678Z,15.70
2022-11-17T16:41:37.378Z,16.87
2022-11-17T16:44:08.793Z,15.32
2022-11-17T16:46:36.215Z,15.85
2022-11-17T16:49:05.979Z,17.23
2022-11-17T16:51:33.328Z,18.27
2022-11-17T16:54:03.060Z,21.65
2022-11-17T16:56:30.286Z,17.42
2022-11-17T16:58:57.598Z,15.35
2022-11-17T17:01:30.606Z,18.58
2022-11-17T17:04:01.681Z,14.80
2022-11-17T17:06:29.612Z,19.08
2022-11-17T17:08:58.054Z,18.48
2022-11-17T17:11:25.190Z,20.77
2022-11-17T17:13:52.248Z,24.30
2022-11-17T17:16:20.072Z,22.87
2022-11-17T17:18:47.007Z,19.27
2022-11-17T17:21:17.387Z,18.80
2022-11-17T17:23:45.816Z,17.27
2022-11-17T17:26:16.850Z,19.40
2022-11-17T17:28:44.915Z,18.80
2022-11-17T17:31:21.073Z,17.60
2022-11-17T17:33:50.407Z,16.98
2022-11-17T17:36:22.433Z,17.30
2022-11-17T17:38:55.346Z,16.37
2022-11-17T17:41:26.247Z,18.67
2022-11-17T17:44:03.774Z,17.65
2022-11-17T17:46:32.114Z,19.60
2022-11-17T17:48:59.165Z,18.85
2022-11-17T17:51:27.865Z,19.55
2022-11-17T17:53:56.130Z,18.17
2022-11-17T17:56:23.713Z,19.02
2022-11-17T17:58:51.994Z,18.87
2022-11-17T18:01:23.185Z,17.90
2022-11-17T18:03:51.791Z,18.08
2022-11-17T18:06:21.151Z,18.92
2022-11-17T18:08:50.535Z,18.40
2022-11-17T18:11:20.688Z,18.65
2022-11-17T18:13:49.328Z,21.02
2022-11-17T18:16:22.121Z,17.67
2022-11-17T18:18:49.426Z,17.98
2022-11-17T18:21:20.198Z,18.05
2022-11-17T18:23:47.164Z,19.17
2022-11-17T18:26:20.360Z,19.00
2022-11-17T18:29:07.756Z,18.20
2022-11-17T18:31:36.505Z,17.23
2022-11-17T18:34:09.243Z,19.02
2022-11-17T18:36:36.265Z,17.92
2022-11-17T18:39:03.770Z,18.73
2022-11-17T18:41:32.369Z,20.75
2022-11-17T18:43:59.295Z,19.75
2022-11-17T18:46:28.891Z,18.35
2022-11-17T18:48:56.886Z,19.95
2022-11-17T18:51:29.268Z,19.27
2022-11-17T18:53:57.902Z,18.10
2022-11-17T18:56:32.051Z,17.50
2022-11-17T18:58:59.506Z,20.52
2022-11-17T19:01:30.486Z,18.85
2022-11-17T19:04:00.905Z,19.08
2022-11-17T19:06:28.749Z,17.50
2022-11-17T19:08:57.595Z,19.60
2022-11-17T19:11:24.571Z,20.65
2022-11-17T19:13:52.428Z,20.67
2022-11-17T19:16:22.168Z,20.83
2022-11-17T19:18:52.553Z,20.15
2022-11-17T19:21:26.651Z,25.48
2022-11-17T19:23:55.116Z,22.15
2022-11-17T19:26:26.790Z,23.48
2022-11-17T19:28:58.248Z,22.33
2022-11-17T19:31:25.812Z,25.05
2022-11-17T19:33:53.537Z,20.27
2022-11-17T19:36:22.714Z,23.42
2022-11-17T19:38:51.171Z,22.65
2022-11-17T19:41:25.588Z,25.23
2022-11-17T19:43:56.876Z,21.80
2022-11-17T19:46:25.271Z,22.23
2022-11-17T19:48:52.525Z,25.58
2022-11-17T19:51:27.260Z,25.85
2022-11-17T19:53:56.195Z,22.95
2022-11-17T19:56:24.378Z,24.25
2022-11-17T19:58:52.181Z,23.48
2022-11-17T20:01:21.307Z,24.87
2022-11-17T20:03:48.740Z,26.37
2022-11-17T20:06:18.099Z,23.35
2022-11-17T20:08:45.338Z,21.55
2022-11-17T20:11:14.861Z,23.27
2022-11-17T20:13:41.861Z,22.75
2022-11-17T20:16:15.253Z,23.80
2022-11-17T20:18:43.526Z,22.37
2022-11-17T20:21:11.317Z,21.55
2022-11-17T20:23:39.463Z,26.92
2022-11-17T20:26:08.798Z,21.58
2022-11-17T20:28:36.643Z,23.40
2022-11-17T20:31:17.285Z,21.73
2022-11-17T20:33:44.271Z,22.35
2022-11-17T20:36:19.593Z,23.33
2022-11-17T20:39:07.053Z,25.12
2022-11-17T20:41:34.594Z,25.55
2022-11-17T20:44:03.329Z,25.83
2022-11-17T20:46:30.422Z,22.10
2022-11-17T20:48:57.327Z,23.52
2022-11-17T20:51:25.398Z,22.27
2022-11-17T20:53:52.663Z,23.80
2022-11-17T20:56:20.243Z,26.17
2022-11-17T20:58:47.246Z,26.08
2022-11-17T21:01:16.560Z,24.25
2022-11-17T21:03:44.203Z,23.10
2022-11-17T21:06:11.579Z,22.05
2022-11-17T21:08:40.027Z,24.48
2022-11-17T21:11:09.763Z,25.67
2022-11-17T21:13:37.683Z,23.73
2022-11-17T21:16:12.582Z,26.10
2022-11-17T21:18:45.226Z,23.48
2022-11-17T21:21:12.629Z,23.00
2022-11-17T21:23:40.552Z,27.87
2022-11-17T21:26:13.103Z,25.60
2022-11-17T21:28:41.121Z,24.17
2022-11-17T21:31:12.059Z,24.85
2022-11-17T21:33:39.602Z,25.20
2022-11-17T21:36:15.924Z,23.55
2022-11-17T21:38:43.809Z,25.65
2022-11-17T21:41:32.610Z,23.17
2022-11-17T21:44:01.107Z,23.25
2022-11-17T21:46:30.121Z,22.58
2022-11-17T21:48:58.194Z,22.02
2022-11-17T21:51:28.203Z,25.98
2022-11-17T21:53:57.664Z,26.50
2022-11-17T21:56:27.056Z,23.73
2022-11-17T21:59:01.104Z,25.48
2022-11-17T22:01:29.105Z,26.58
2022-11-17T22:03:56.244Z,26.83
2022-11-17T22:06:24.092Z,27.00
2022-11-17T22:08:51.370Z,25.58
2022-11-17T22:11:35.600Z,25.25
2022-11-17T22:14:11.967Z,25.08
2022-11-17T22:16:43.653Z,24.60
2022-11-17T22:19:11.468Z,24.85
2022-11-17T22:21:38.992Z,29.50
2022-11-17T22:24:07.977Z,27.90
2022-11-17T22:26:38.636Z,26.90
2022-11-17T22:29:08.700Z,31.98
2022-11-17T22:31:35.594Z,29.50
2022-11-17T22:34:02.888Z,32.97
2022-11-17T22:36:29.821Z,33.13
2022-11-17T22:38:56.730Z,36.03
2022-11-17T22:41:23.931Z,35.08
2022-11-17T22:43:52.066Z,41.63
2022-11-17T22:46:19.983Z,44.17
2022-11-17T22:48:47.463Z,47.15
2022-11-17T22:51:34.750Z,45.75
2022-11-17T22:54:01.693Z,39.53
2022-11-17T22:56:28.570Z,44.33
2022-11-17T22:58:59.487Z,47.78
2022-11-17T23:01:26.508Z,49.03
2022-11-17T23:03:53.522Z,53.85
2022-11-17T23:06:20.556Z,74.22
2022-11-17T23:08:47.486Z,119.18
2022-11-17T23:11:36.105Z,103.70
2022-11-17T23:14:01.653Z,149.13
2022-11-17T23:16:28.589Z,135.00
2022-11-17T23:18:56.551Z,177.60
2022-11-17T23:21:23.781Z,202.90
2022-11-17T23:23:51.142Z,192.10
2022-11-17T23:26:18.286Z,214.80
2022-11-17T23:28:45.512Z,150.98
2022-11-17T23:31:16.325Z,132.48
2022-11-17T23:33:45.378Z,154.75
2022-11-17T23:36:17.127Z,140.65
2022-11-17T23:38:44.474Z,76.10
2022-11-17T23:41:13.446Z,48.85
2022-11-17T23:43:40.894Z,43.70
2022-11-17T23:46:11.644Z,39.30
2022-11-17T23:48:38.595Z,40.38
2022-11-17T23:51:07.605Z,37.10
2022-11-17T23:53:34.978Z,37.38
2022-11-17T23:56:02.386Z,36.05
2022-11-17T23:58:29.608Z,33.45
